Time;durP1;ratioP1;P1;durP2;ratioP2;P2;SDS_P1;SDS_P2;PMS_P1;PMS_P2;Temp;Humidity;BMP_temperature;BMP_pressure;BME280_temperature;BME280_humidity;BME280_pressure;Samples;Min_cycle;Max_cycle;Signal;HPM_P1;HPM_P2
2021/10/03 00:00:31;;;;;;;16.07;7.72;;;;;;;1.31;98.06;102179.95;1735555;82;21726;-53
2021/10/03 00:02:58;;;;;;;16.23;8.28;;;;;;;1.31;98.14;102175.27;1735153;82;21008;-53
2021/10/03 00:05:25;;;;;;;13.18;7.53;;;;;;;1.30;98.23;102180.77;1735468;81;21028;-53
2021/10/03 00:07:59;;;;;;;12.85;8.20;;;;;;;1.29;98.20;102176.08;1735061;82;21012;-53
2021/10/03 00:10:28;;;;;;;13.62;7.80;;;;;;;1.29;98.19;102170.97;1735589;81;20929;-53
2021/10/03 00:12:55;;;;;;;25.82;9.15;;;;;;;1.29;98.26;102173.91;1735166;82;21087;-53
2021/10/03 00:15:21;;;;;;;19.87;8.40;;;;;;;1.27;98.32;102169.14;1735440;81;20960;-52
2021/10/03 00:17:48;;;;;;;14.70;8.83;;;;;;;1.25;98.34;102172.02;1735283;81;22219;-52
2021/10/03 00:20:15;;;;;;;13.72;8.05;;;;;;;1.24;98.43;102172.41;1735152;82;20925;-52
2021/10/03 00:22:42;;;;;;;24.23;9.30;;;;;;;1.24;98.53;102170.27;1735250;82;21533;-52
2021/10/03 00:25:09;;;;;;;15.53;9.03;;;;;;;1.22;98.57;102172.73;1735078;81;21061;-52
2021/10/03 00:27:37;;;;;;;24.47;9.85;;;;;;;1.21;98.64;102170.98;1735039;82;21016;-53
2021/10/03 00:30:05;;;;;;;24.45;10.23;;;;;;;1.21;98.70;102164.61;1735428;82;20957;-54
2021/10/03 00:32:31;;;;;;;28.38;10.18;;;;;;;1.20;98.82;102169.23;1735009;81;20984;-54
2021/10/03 00:34:57;;;;;;;18.10;9.30;;;;;;;1.21;98.96;102169.71;1735519;82;20960;-53
2021/10/03 00:37:24;;;;;;;20.43;9.70;;;;;;;1.23;99.16;102169.80;1735570;82;21110;-53
2021/10/03 00:39:51;;;;;;;20.35;8.73;;;;;;;1.23;99.18;102167.25;1734989;82;21537;-54
2021/10/03 00:42:17;;;;;;;18.80;10.05;;;;;;;1.23;99.20;102170.66;1735477;82;21579;-52
2021/10/03 00:44:45;;;;;;;17.23;8.85;;;;;;;1.23;99.22;102165.55;1735191;81;21458;-54
2021/10/03 00:47:11;;;;;;;19.10;8.05;;;;;;;1.24;99.25;102166.45;1735289;82;21518;-53
2021/10/03 00:49:38;;;;;;;18.35;9.13;;;;;;;1.25;99.30;102169.05;1739312;81;21796;-53
2021/10/03 00:52:06;;;;;;;16.57;8.25;;;;;;;1.25;99.33;102167.77;1735453;82;21526;-53
2021/10/03 00:54:33;;;;;;;19.87;8.10;;;;;;;1.26;99.19;102165.73;1735165;82;20972;-53
2021/10/03 00:57:01;;;;;;;19.02;8.48;;;;;;;1.25;99.03;102165.64;1735095;82;20905;-53
2021/10/03 00:59:27;;;;;;;16.32;8.50;;;;;;;1.23;98.90;102164.70;1735200;82;21019;-53
2021/10/03 01:01:54;;;;;;;21.30;8.85;;;;;;;1.21;99.04;102166.30;1714157;82;21239;-53
2021/10/03 01:04:21;;;;;;;22.32;8.03;;;;;;;1.23;99.20;102163.42;1735146;82;20929;-53
2021/10/03 01:06:47;;;;;;;22.45;9.15;;;;;;;1.21;99.10;102168.86;1735069;82;20890;-53
2021/10/03 01:09:14;;;;;;;19.20;8.83;;;;;;;1.14;98.88;102164.74;1735441;82;21000;-53
2021/10/03 01:11:41;;;;;;;14.13;9.05;;;;;;;1.10;98.83;102169.20;1735078;82;20969;-53
2021/10/03 01:14:07;;;;;;;14.38;8.30;;;;;;;1.04;98.76;102166.36;1714586;82;21185;-53
2021/10/03 01:16:34;;;;;;;20.12;8.88;;;;;;;0.99;98.83;102164.85;1735300;81;21015;-54
2021/10/03 01:19:01;;;;;;;27.50;10.03;;;;;;;0.96;98.86;102163.84;1749142;81;21438;-53
2021/10/03 01:21:27;;;;;;;24.05;9.55;;;;;;;0.92;98.98;102165.36;1749105;82;21559;-53
2021/10/03 01:23:55;;;;;;;28.83;9.45;;;;;;;0.92;99.21;102172.16;1749534;82;21524;-53
2021/10/03 01:26:21;;;;;;;27.93;9.48;;;;;;;0.91;99.33;102172.95;1749135;81;21188;-53
2021/10/03 01:28:48;;;;;;;19.62;9.78;;;;;;;0.91;99.42;102175.51;1721320;82;20975;-53
2021/10/03 01:31:15;;;;;;;22.30;8.98;;;;;;;0.91;99.47;102177.64;1749124;82;20889;-53
2021/10/03 01:33:41;;;;;;;26.48;10.55;;;;;;;0.90;99.41;102175.03;1749025;82;21011;-53
2021/10/03 01:36:09;;;;;;;23.40;9.35;;;;;;;0.84;99.42;102168.81;1749175;82;21015;-53
2021/10/03 01:38:36;;;;;;;18.23;10.20;;;;;;;0.83;99.49;102168.75;1749472;82;21124;-53
2021/10/03 01:41:02;;;;;;;14.40;8.83;;;;;;;0.81;99.52;102166.11;1748993;81;20983;-53
2021/10/03 01:43:29;;;;;;;20.55;9.70;;;;;;;0.79;99.47;102166.86;1749165;82;20972;-52
2021/10/03 01:45:56;;;;;;;16.65;9.28;;;;;;;0.75;99.43;102170.91;1749150;82;20967;-53
2021/10/03 01:48:23;;;;;;;15.95;10.40;;;;;;;0.71;99.51;102172.84;1721789;82;21018;-52
2021/10/03 01:50:58;;;;;;;20.30;8.63;;;;;;;0.67;99.51;102174.77;1721700;82;22385;-53
2021/10/03 01:53:28;;;;;;;17.95;9.68;;;;;;;0.64;99.62;102172.07;1721977;82;20916;-52
2021/10/03 01:55:55;;;;;;;16.87;8.88;;;;;;;0.62;99.64;102173.64;1748219;82;20940;-52
2021/10/03 01:58:23;;;;;;;16.35;9.80;;;;;;;0.60;99.79;102175.23;1749571;82;20959;-52
2021/10/03 02:00:53;;;;;;;19.77;9.45;;;;;;;0.56;99.91;102172.54;1749206;82;21541;-52
2021/10/03 02:03:20;;;;;;;23.38;9.45;;;;;;;0.55;100.00;102174.61;1749020;82;21749;-53
2021/10/03 02:05:47;;;;;;;13.38;8.20;;;;;;;0.56;100.00;102167.44;1749360;82;21486;-53
2021/10/03 02:08:15;;;;;;;13.10;8.08;;;;;;;0.54;100.00;102170.31;1721208;82;20916;-52
2021/10/03 02:10:46;;;;;;;17.45;8.98;;;;;;;0.51;100.00;102168.03;1749310;82;20957;-52
2021/10/03 02:13:14;;;;;;;16.73;9.53;;;;;;;0.47;100.00;102174.64;1749030;81;21469;-52
2021/10/03 02:15:43;;;;;;;18.48;8.95;;;;;;;0.47;100.00;102177.56;1749435;82;21770;-52
2021/10/03 02:18:11;;;;;;;19.98;8.75;;;;;;;0.47;100.00;102181.39;1741328;81;20944;-52
2021/10/03 02:20:38;;;;;;;14.18;8.38;;;;;;;0.45;100.00;102178.78;1735040;82;21577;-52
2021/10/03 02:23:07;;;;;;;30.92;10.10;;;;;;;0.43;100.00;102178.69;1738822;81;21064;-53
2021/10/03 02:25:43;;;;;;;21.07;9.73;;;;;;;0.42;100.00;102172.26;1735424;82;20906;-52
2021/10/03 02:28:04;;;;;;;19.15;9.43;;;;;;;0.43;100.00;102172.31;1734423;82;21600;-52
2021/10/03 02:30:31;;;;;;;23.83;9.45;;;;;;;0.47;100.00;102172.09;1735018;82;20972;-52
2021/10/03 02:33:51;;;;;;;18.75;8.78;;;;;;;0.51;100.00;102166.34;1797571;79;22724;-52
2021/10/03 02:36:21;;;;;;;32.45;8.65;;;;;;;0.47;100.00;102174.64;1738006;81;20928;-52
2021/10/03 02:38:47;;;;;;;29.70;8.33;;;;;;;0.46;100.00;102172.89;1757619;81;21045;-52
2021/10/03 02:41:16;;;;;;;23.25;9.85;;;;;;;0.45;100.00;102171.52;1757489;81;20928;-53
2021/10/03 02:43:45;;;;;;;24.55;9.20;;;;;;;0.41;100.00;102176.46;1707378;83;21638;-53
2021/10/03 02:46:12;;;;;;;42.90;9.95;;;;;;;0.39;100.00;102172.11;1723794;83;21053;-53
2021/10/03 02:48:39;;;;;;;20.00;8.80;;;;;;;0.42;100.00;102170.98;1723903;83;21607;-53
2021/10/03 02:51:07;;;;;;;13.75;7.92;;;;;;;0.42;100.00;102172.26;1723874;83;21580;-53
2021/10/03 02:53:34;;;;;;;26.77;8.93;;;;;;;0.38;100.00;102176.69;1723829;83;20903;-53
2021/10/03 02:56:00;;;;;;;16.97;8.70;;;;;;;0.33;100.00;102172.66;1723879;83;20998;-53
2021/10/03 02:58:27;;;;;;;17.90;9.60;;;;;;;0.28;100.00;102178.78;1723986;83;21010;-53
2021/10/03 03:00:54;;;;;;;27.87;12.07;;;;;;;0.21;100.00;102172.91;1723811;83;20983;-53
2021/10/03 03:03:21;;;;;;;34.63;14.63;;;;;;;0.12;100.00;102172.02;1699521;83;21314;-53
2021/10/03 03:05:48;;;;;;;71.50;25.50;;;;;;;0.05;100.00;102181.80;1669623;84;21056;-53
2021/10/03 03:08:15;;;;;;;93.90;33.92;;;;;;;-0.04;100.00;102177.09;1670045;84;21102;-53
2021/10/03 03:10:41;;;;;;;43.87;18.40;;;;;;;-0.10;100.00;102181.48;1697938;84;21003;-53
2021/10/03 03:13:08;;;;;;;28.30;13.08;;;;;;;-0.13;100.00;102184.26;1715929;83;20982;-53
2021/10/03 03:15:34;;;;;;;23.25;12.07;;;;;;;-0.13;100.00;102181.71;1687384;84;21904;-53
2021/10/03 03:18:00;;;;;;;16.85;9.58;;;;;;;-0.16;100.00;102191.33;1708425;84;21037;-53
2021/10/03 03:20:27;;;;;;;15.63;9.23;;;;;;;-0.20;100.00;102183.94;1708684;84;20916;-53
2021/10/03 03:22:53;;;;;;;15.05;9.08;;;;;;;-0.21;100.00;102190.20;1708512;84;21046;-53
2021/10/03 03:25:20;;;;;;;15.70;8.95;;;;;;;-0.24;100.00;102195.14;1708452;84;21022;-53
2021/10/03 03:27:46;;;;;;;21.12;9.65;;;;;;;-0.28;100.00;102199.59;1708681;84;21163;-53
2021/10/03 03:30:13;;;;;;;21.20;9.40;;;;;;;-0.34;100.00;102198.84;1708644;84;21565;-53
2021/10/03 03:32:39;;;;;;;17.17;9.48;;;;;;;-0.39;100.00;102194.77;1705499;83;20921;-53
2021/10/03 03:35:08;;;;;;;12.60;8.33;;;;;;;-0.40;100.00;102196.84;1711001;83;20983;-53
2021/10/03 03:37:35;;;;;;;17.00;8.85;;;;;;;-0.39;100.00;102202.41;1701267;84;21010;-53
2021/10/03 03:40:05;;;;;;;13.25;8.28;;;;;;;-0.40;100.00;102197.25;1678379;85;21933;-53
2021/10/03 03:42:31;;;;;;;15.68;9.10;;;;;;;-0.43;100.00;102195.41;1711057;83;21002;-53
2021/10/03 03:44:58;;;;;;;15.23;8.90;;;;;;;-0.47;100.00;102194.77;1700769;84;20971;-53
2021/10/03 03:47:24;;;;;;;17.45;8.03;;;;;;;-0.47;100.00;102202.39;1710634;82;21015;-52
2021/10/03 03:49:51;;;;;;;15.83;8.65;;;;;;;-0.47;100.00;102196.03;1700856;84;21560;-53
2021/10/03 03:52:19;;;;;;;15.20;9.18;;;;;;;-0.47;100.00;102201.12;1710785;83;21788;-53
2021/10/03 03:54:46;;;;;;;20.62;9.08;;;;;;;-0.48;100.00;102200.64;1700746;84;20995;-53
2021/10/03 03:57:13;;;;;;;18.30;9.45;;;;;;;-0.47;100.00;102196.03;1684056;83;21134;-53
2021/10/03 03:59:39;;;;;;;16.75;9.23;;;;;;;-0.43;100.00;102197.95;1700684;84;21626;-53
2021/10/03 04:02:06;;;;;;;17.07;8.30;;;;;;;-0.41;100.00;102198.91;1684073;83;21024;-53
2021/10/03 04:04:32;;;;;;;12.28;7.92;;;;;;;-0.38;100.00;102205.47;1674734;84;21133;-53
2021/10/03 04:06:59;;;;;;;12.95;8.15;;;;;;;-0.33;100.00;102200.22;1710346;83;21006;-53
2021/10/03 04:09:26;;;;;;;13.90;8.08;;;;;;;-0.29;100.00;102201.24;1674436;84;20995;-53
2021/10/03 04:11:52;;;;;;;11.80;7.90;;;;;;;-0.25;100.00;102207.39;1710433;83;20996;-53
2021/10/03 04:14:19;;;;;;;17.50;8.00;;;;;;;-0.19;100.00;102208.98;1700672;84;20940;-53
2021/10/03 04:16:45;;;;;;;21.12;8.68;;;;;;;-0.13;100.00;102205.48;1710460;83;21202;-52
2021/10/03 04:19:12;;;;;;;24.98;7.60;;;;;;;-0.09;100.00;102206.54;1700938;84;21007;-52
2021/10/03 04:21:38;;;;;;;12.20;7.05;;;;;;;-0.05;100.00;102209.72;1710239;83;21572;-52
2021/10/03 04:24:05;;;;;;;11.28;7.80;;;;;;;-0.02;100.00;102210.77;1674985;84;21690;-52
2021/10/03 04:26:32;;;;;;;14.35;7.80;;;;;;;0.05;100.00;102207.27;1710401;83;20935;-52
2021/10/03 04:28:59;;;;;;;15.15;8.35;;;;;;;0.12;100.00;102211.88;1700835;84;21151;-52
2021/10/03 04:31:25;;;;;;;60.50;9.98;;;;;;;0.22;100.00;102206.87;1710242;83;20947;-53
2021/10/03 04:33:52;;;;;;;14.03;8.53;;;;;;;0.34;100.00;102213.91;1667611;84;21000;-53
2021/10/03 04:36:18;;;;;;;14.53;7.78;;;;;;;0.45;100.00;102213.56;1695162;84;20980;-52
2021/10/03 04:38:45;;;;;;;12.37;8.23;;;;;;;0.55;100.00;102219.22;1695614;84;21031;-52
2021/10/03 04:41:11;;;;;;;16.02;8.28;;;;;;;0.69;100.00;102213.95;1695191;83;21144;-52
2021/10/03 04:43:38;;;;;;;16.10;9.58;;;;;;;0.83;100.00;102214.23;1665902;84;21007;-52
2021/10/03 04:46:04;;;;;;;16.90;8.20;;;;;;;0.99;100.00;102212.45;1695238;84;21052;-52
2021/10/03 04:48:31;;;;;;;16.52;8.70;;;;;;;1.12;100.00;102212.23;1695185;84;20941;-53
2021/10/03 04:50:58;;;;;;;15.13;7.97;;;;;;;1.27;100.00;102211.23;1695304;84;20964;-54
2021/10/03 04:53:24;;;;;;;14.83;8.50;;;;;;;1.39;100.00;102210.56;1695090;83;21538;-54
2021/10/03 04:55:50;;;;;;;15.58;8.43;;;;;;;1.54;100.00;102213.35;1695484;84;21554;-53
2021/10/03 04:58:17;;;;;;;19.50;8.63;;;;;;;1.67;100.00;102211.86;1695050;84;21289;-53
2021/10/03 05:00:43;;;;;;;18.15;9.45;;;;;;;1.79;100.00;102219.59;1695159;83;21023;-53
2021/10/03 05:03:10;;;;;;;18.75;10.08;;;;;;;1.88;100.00;102216.59;1695275;84;21501;-53
2021/10/03 05:05:37;;;;;;;17.37;10.58;;;;;;;1.98;100.00;102213.64;1662796;84;21237;-53
2021/10/03 05:08:04;;;;;;;22.77;10.32;;;;;;;2.08;100.00;102212.38;1695072;83;21032;-53
2021/10/03 05:10:31;;;;;;;21.17;11.10;;;;;;;2.17;100.00;102215.36;1695604;84;20960;-53
2021/10/03 05:12:57;;;;;;;17.25;10.15;;;;;;;2.27;100.00;102209.84;1665436;84;21016;-52
2021/10/03 05:15:25;;;;;;;19.42;9.80;;;;;;;2.37;100.00;102212.39;1695300;84;21024;-53
2021/10/03 05:17:52;;;;;;;13.58;9.10;;;;;;;2.50;100.00;102211.63;1695639;84;21123;-53
2021/10/03 05:20:18;;;;;;;25.88;11.20;;;;;;;2.64;100.00;102215.67;1695104;84;20964;-53
2021/10/03 05:22:45;;;;;;;23.85;12.35;;;;;;;2.76;100.00;102208.92;1695219;84;21003;-53
2021/10/03 05:25:12;;;;;;;19.32;10.18;;;;;;;2.86;100.00;102209.76;1695264;84;21058;-53
2021/10/03 05:27:38;;;;;;;22.07;10.40;;;;;;;2.98;100.00;102213.66;1695370;84;20980;-53
2021/10/03 05:30:06;;;;;;;15.43;8.03;;;;;;;3.11;100.00;102211.19;1695398;84;21062;-53
2021/10/03 05:32:34;;;;;;;14.65;8.10;;;;;;;3.28;100.00;102211.86;1695065;83;20985;-53
2021/10/03 05:35:01;;;;;;;11.22;7.30;;;;;;;3.43;100.00;102212.48;1695232;84;20948;-53
2021/10/03 05:37:27;;;;;;;23.45;7.72;;;;;;;3.60;100.00;102208.39;1665124;84;20949;-53
2021/10/03 05:39:55;;;;;;;10.78;6.87;;;;;;;3.74;100.00;102212.38;1695259;84;21011;-53
2021/10/03 05:42:22;;;;;;;11.57;6.78;;;;;;;3.92;100.00;102215.17;1695230;84;21100;-53
2021/10/03 05:44:48;;;;;;;8.48;6.80;;;;;;;4.10;100.00;102229.45;1695219;84;20995;-53
2021/10/03 05:47:15;;;;;;;9.90;7.37;;;;;;;4.25;100.00;102229.14;1665013;84;21016;-54
2021/10/03 05:49:42;;;;;;;9.83;7.30;;;;;;;4.39;99.41;102229.63;1695207;84;21011;-53
2021/10/03 05:52:09;;;;;;;11.10;7.22;;;;;;;4.53;99.21;102223.31;1695226;84;21054;-53
2021/10/03 05:54:35;;;;;;;12.75;7.22;;;;;;;4.83;98.43;102226.46;1695294;84;21108;-53
2021/10/03 05:57:02;;;;;;;15.15;7.50;;;;;;;4.83;98.43;102226.46;1695278;84;20976;-53
2021/10/03 05:59:28;;;;;;;16.65;8.20;;;;;;;4.98;97.76;102229.09;1665498;84;21550;-53
2021/10/03 06:01:54;;;;;;;12.43;7.95;;;;;;;5.13;97.16;102228.72;1695392;84;21119;-53
2021/10/03 06:04:21;;;;;;;10.23;6.58;;;;;;;5.45;94.70;102230.14;1695258;84;20976;-53
2021/10/03 06:06:47;;;;;;;8.50;5.62;;;;;;;5.45;94.70;102230.14;1695128;83;21620;-53
2021/10/03 06:09:14;;;;;;;12.68;6.47;;;;;;;5.61;93.38;102232.77;1695174;84;20964;-53
2021/10/03 06:11:40;;;;;;;8.33;6.08;;;;;;;5.79;91.91;102228.59;1695157;84;21039;-53
2021/10/03 06:14:07;;;;;;;25.23;10.18;;;;;;;6.07;89.29;102220.86;1695181;84;21083;-53
2021/10/03 06:16:35;;;;;;;17.10;8.15;;;;;;;6.07;89.29;102220.86;1695272;84;20952;-53
2021/10/03 06:19:02;;;;;;;12.10;8.30;;;;;;;6.24;87.28;102222.22;1665280;84;21176;-53
2021/10/03 06:21:28;;;;;;;14.87;5.85;;;;;;;6.39;86.10;102228.20;1695425;84;21047;-53
2021/10/03 06:23:55;;;;;;;23.55;8.03;;;;;;;6.53;85.01;102231.53;1695139;84;20972;-53
2021/10/03 06:26:21;;;;;;;24.63;7.03;;;;;;;6.68;83.56;102229.78;1695368;83;21589;-53
2021/10/03 06:28:48;;;;;;;12.40;6.65;;;;;;;6.82;81.39;102224.59;1695218;84;20988;-55
2021/10/03 06:31:15;;;;;;;8.38;5.97;;;;;;;6.94;79.59;102225.31;1695178;84;21115;-53
2021/10/03 06:33:41;;;;;;;9.53;6.12;;;;;;;7.04;78.87;102214.83;1697529;83;20999;-53
2021/10/03 06:36:08;;;;;;;10.72;5.78;;;;;;;7.13;77.80;102213.75;1710232;84;20979;-53
2021/10/03 06:38:35;;;;;;;22.73;6.55;;;;;;;7.26;76.79;102216.64;1674627;84;20976;-53
2021/10/03 06:41:02;;;;;;;11.50;5.87;;;;;;;7.39;76.48;102220.37;1710359;84;20936;-53
2021/10/03 06:43:35;;;;;;;9.73;6.35;;;;;;;7.51;75.10;102222.35;1700605;84;21197;-53
2021/10/03 06:45:58;;;;;;;12.00;5.45;;;;;;;7.60;74.13;102217.39;1709723;84;21031;-53
2021/10/03 06:48:24;;;;;;;10.08;5.30;;;;;;;7.70;73.70;102215.89;1700965;84;21055;-53
2021/10/03 06:50:50;;;;;;;28.80;5.80;;;;;;;7.84;73.16;102210.63;1710307;84;21536;-53
2021/10/03 06:53:17;;;;;;;13.03;5.58;;;;;;;7.96;72.76;102210.41;1674688;84;20968;-53
2021/10/03 06:55:43;;;;;;;9.48;5.20;;;;;;;8.05;71.39;102210.59;1710457;84;21123;-53
2021/10/03 06:58:10;;;;;;;10.38;5.12;;;;;;;8.16;71.16;102209.52;1674371;84;21050;-53
2021/10/03 07:00:36;;;;;;;10.03;4.92;;;;;;;8.28;71.37;102217.51;1710357;83;21046;-53
2021/10/03 07:03:03;;;;;;;16.65;5.60;;;;;;;8.38;70.40;102213.80;1700473;84;21019;-53
2021/10/03 07:05:31;;;;;;;14.23;4.87;;;;;;;8.51;70.50;102217.11;1683681;84;21533;-53
2021/10/03 07:07:57;;;;;;;20.20;5.72;;;;;;;8.61;70.10;102213.84;1700696;84;21116;-53
2021/10/03 07:10:26;;;;;;;26.35;5.67;;;;;;;8.75;70.42;102220.97;1684122;84;20959;-53
2021/10/03 07:12:52;;;;;;;10.05;4.83;;;;;;;8.91;69.36;102221.66;1700596;84;20932;-53
2021/10/03 07:15:19;;;;;;;8.28;5.15;;;;;;;9.08;68.36;102217.20;1710236;84;20947;-53
2021/10/03 07:17:47;;;;;;;18.12;5.15;;;;;;;9.19;67.37;102206.59;1700689;84;20959;-53
2021/10/03 07:20:13;;;;;;;9.88;5.30;;;;;;;9.24;65.63;102207.97;1710461;83;21117;-53
2021/10/03 07:22:41;;;;;;;14.75;5.20;;;;;;;9.29;66.72;102208.90;1700671;84;21012;-53
2021/10/03 07:25:09;;;;;;;12.70;5.85;;;;;;;9.38;67.11;102208.17;1710536;83;20943;-53
2021/10/03 07:27:35;;;;;;;18.92;4.92;;;;;;;9.56;66.57;102211.88;1700978;84;20948;-53
2021/10/03 07:30:03;;;;;;;15.53;5.67;;;;;;;9.75;65.30;102203.52;1710553;83;20991;-53
2021/10/03 07:32:29;;;;;;;17.70;5.78;;;;;;;10.01;64.83;102195.63;1700767;84;21692;-53
2021/10/03 07:34:56;;;;;;;14.33;5.40;;;;;;;10.31;63.96;102196.40;1701768;83;21545;-53
2021/10/03 07:37:22;;;;;;;19.67;5.10;;;;;;;10.57;61.85;102194.52;1695269;84;20988;-53
2021/10/03 07:39:49;;;;;;;15.15;5.70;;;;;;;10.80;63.03;102196.87;1665235;84;21020;-53
2021/10/03 07:42:16;;;;;;;13.35;5.10;;;;;;;10.93;60.21;102198.72;1695289;84;21003;-53
2021/10/03 07:44:43;;;;;;;13.30;5.08;;;;;;;10.90;60.95;102186.59;1695310;84;21148;-53
2021/10/03 07:47:09;;;;;;;17.82;5.75;;;;;;;10.90;61.20;102184.00;1695246;84;20984;-53
2021/10/03 07:49:36;;;;;;;21.77;5.67;;;;;;;10.86;61.30;102187.43;1665129;84;21003;-53
2021/10/03 07:52:04;;;;;;;19.55;5.00;;;;;;;10.78;61.29;102188.66;1695164;84;21087;-53
2021/10/03 07:54:31;;;;;;;19.67;6.65;;;;;;;10.73;61.70;102184.28;1695227;84;21003;-53
2021/10/03 07:56:58;;;;;;;20.35;5.05;;;;;;;10.78;61.92;102186.51;1695263;84;21050;-52
2021/10/03 07:59:25;;;;;;;29.05;5.37;;;;;;;10.91;62.45;102184.44;1695422;84;21011;-53
2021/10/03 08:01:52;;;;;;;24.98;5.85;;;;;;;11.14;63.28;102183.74;1695289;84;21039;-53
2021/10/03 08:04:19;;;;;;;25.92;5.53;;;;;;;11.40;59.87;102180.89;1695232;84;20976;-53
2021/10/03 08:06:45;;;;;;;21.23;5.30;;;;;;;11.59;59.60;102182.70;1695464;84;21008;-53
2021/10/03 08:09:12;;;;;;;16.85;4.95;;;;;;;11.86;58.99;102175.04;1695279;84;21160;-53
2021/10/03 08:11:40;;;;;;;85.60;7.17;;;;;;;12.16;56.98;102169.11;1665011;84;21636;-53
2021/10/03 08:14:06;;;;;;;29.40;6.05;;;;;;;12.42;57.32;102166.11;1695581;84;21106;-53
2021/10/03 08:16:33;;;;;;;18.17;5.00;;;;;;;12.68;57.13;102170.45;1695192;83;21981;-52
2021/10/03 08:18:59;;;;;;;22.98;6.50;;;;;;;12.98;55.32;102167.40;1695223;84;21581;-52
2021/10/03 08:21:27;;;;;;;23.32;6.72;;;;;;;13.07;54.44;102165.66;1695248;84;21076;-52
2021/10/03 08:23:54;;;;;;;26.55;8.40;;;;;;;13.06;55.08;102166.52;1695232;84;20933;-52
2021/10/03 08:26:21;;;;;;;39.55;8.90;;;;;;;13.01;55.20;102166.97;1695276;84;21058;-52
2021/10/03 08:28:47;;;;;;;17.60;6.08;;;;;;;13.11;55.49;102170.42;1665663;84;20980;-52
2021/10/03 08:31:14;;;;;;;30.02;6.30;;;;;;;13.34;53.35;102173.41;1695262;84;21861;-52
2021/10/03 08:33:40;;;;;;;22.30;5.42;;;;;;;13.44;53.40;102171.23;1665499;83;21736;-52
2021/10/03 08:36:07;;;;;;;27.02;5.58;;;;;;;13.60;53.51;102169.45;1678190;85;21573;-52
2021/10/03 08:38:33;;;;;;;22.73;4.67;;;;;;;13.82;52.86;102163.30;1710582;83;21571;-52
2021/10/03 08:41:01;;;;;;;62.85;5.35;;;;;;;14.00;52.36;102164.48;1683498;84;21012;-52
2021/10/03 08:43:29;;;;;;;30.70;4.40;;;;;;;14.25;51.51;102156.97;1657338;86;21079;-52
2021/10/03 08:45:57;;;;;;;25.37;3.62;;;;;;;14.48;51.13;102157.67;1652913;86;21134;-52
2021/10/03 08:48:24;;;;;;;47.65;5.08;;;;;;;14.71;51.04;102150.14;1647618;85;21008;-52
2021/10/03 08:50:51;;;;;;;22.37;3.80;;;;;;;15.02;51.06;102154.17;1652765;86;20975;-53
2021/10/03 08:53:18;;;;;;;26.40;3.60;;;;;;;15.38;50.20;102150.77;1647269;85;21552;-53
2021/10/03 08:55:45;;;;;;;15.43;3.42;;;;;;;15.70;49.27;102155.17;1642537;86;21520;-53
2021/10/03 08:58:11;;;;;;;7.90;2.98;;;;;;;15.91;47.96;102147.09;1657461;86;21954;-53
2021/10/03 09:00:46;;;;;;;11.97;3.45;;;;;;;16.09;46.31;102145.95;1652743;86;21553;-53
2021/10/03 09:03:13;;;;;;;11.27;3.50;;;;;;;15.99;44.78;102146.95;1647385;85;21043;-53
2021/10/03 09:05:53;;;;;;;9.25;4.25;;;;;;;15.94;45.75;102152.69;1652647;86;20983;-53
2021/10/03 09:08:26;;;;;;;7.33;3.62;;;;;;;16.00;45.61;102148.67;1672409;85;21058;-53
2021/10/03 09:11:09;;;;;;;7.92;3.58;;;;;;;16.11;44.04;102138.08;1627945;86;22081;-53
2021/10/03 09:13:44;;;;;;;9.10;3.33;;;;;;;16.09;43.97;102140.73;1672637;85;21134;-53
2021/10/03 09:16:17;;;;;;;6.67;3.00;;;;;;;16.03;44.36;102143.41;1657237;86;21040;-53
2021/10/03 09:18:59;;;;;;;7.08;3.30;;;;;;;16.10;43.71;102135.05;1630310;86;21087;-53
2021/10/03 09:21:34;;;;;;;7.92;3.05;;;;;;;16.23;42.63;102139.64;1657323;86;21008;-53
2021/10/03 09:24:11;;;;;;;;;;;;;;;16.27;43.13;102139.16;1630483;86;21952;-53
2021/10/03 09:26:52;;;;;;;4.67;2.70;;;;;;;16.36;42.14;102143.80;1669620;86;20152;-53
2021/10/03 09:29:30;;;;;;;10.30;3.12;;;;;;;16.47;42.71;102134.48;1669596;86;21043;-54
2021/10/03 09:32:18;;;;;;;7.45;2.50;;;;;;;16.60;42.43;102131.64;1669553;86;20936;-53
2021/10/03 09:34:49;;;;;;;7.87;2.25;;;;;;;16.75;40.57;102129.20;1664998;85;21506;-53
2021/10/03 09:37:30;;;;;;;9.58;2.50;;;;;;;16.77;41.89;102130.03;1638520;86;21086;-54
2021/10/03 09:40:13;;;;;;;8.85;1.82;;;;;;;17.01;42.19;102120.05;1659762;86;21337;-53
2021/10/03 09:42:43;;;;;;;5.62;2.00;;;;;;;17.27;41.27;102122.17;1659970;86;21016;-53
2021/10/03 09:45:13;;;;;;;11.38;2.33;;;;;;;17.60;40.69;102108.41;1659225;86;21573;-52
2021/10/03 09:47:42;;;;;;;7.25;2.30;;;;;;;18.00;38.37;102094.39;1659923;86;21032;-54
2021/10/03 09:50:10;;;;;;;6.50;2.10;;;;;;;18.28;39.39;102113.41;1659568;85;21546;-54
2021/10/03 09:52:38;;;;;;;7.40;4.15;;;;;;;18.63;38.19;102118.22;1659888;86;21039;-54
2021/10/03 09:55:09;;;;;;;5.05;1.80;;;;;;;18.71;36.29;102121.08;1659645;86;21183;-54
2021/10/03 09:57:38;;;;;;;3.80;2.22;;;;;;;18.54;34.99;102101.39;1639394;86;21059;-54
2021/10/03 10:00:08;;;;;;;7.55;2.17;;;;;;;18.32;35.03;102107.64;1659677;86;21012;-53
2021/10/03 10:02:35;;;;;;;4.35;1.90;;;;;;;18.20;33.87;102103.13;1659724;86;21797;-53
2021/10/03 10:05:04;;;;;;;4.42;2.40;;;;;;;17.87;35.17;102102.14;1659830;86;22214;-53
2021/10/03 10:07:33;;;;;;;3.42;2.20;;;;;;;17.60;35.61;102097.47;1659993;86;20968;-53
2021/10/03 10:10:00;;;;;;;4.92;1.65;;;;;;;17.31;37.32;102096.34;1659618;86;21506;-53
2021/10/03 10:12:26;;;;;;;4.20;1.80;;;;;;;17.36;36.56;102098.88;1659740;86;20953;-53
2021/10/03 10:15:04;;;;;;;5.53;1.98;;;;;;;17.51;36.67;102090.67;1659747;86;21157;-53
2021/10/03 10:17:42;;;;;;;2.55;1.60;;;;;;;17.59;36.15;102095.75;1659675;86;21004;-52
2021/10/03 10:20:27;;;;;;;3.15;1.72;;;;;;;17.59;35.46;102098.37;1638119;86;21013;-52
2021/10/03 10:23:07;;;;;;;5.92;1.65;;;;;;;17.64;36.67;102087.80;1659536;86;21000;-53
2021/10/03 10:25:48;;;;;;;4.05;2.35;;;;;;;17.89;36.57;102089.87;1638447;86;20984;-53
2021/10/03 10:28:31;;;;;;;12.98;2.45;;;;;;;18.13;36.94;102087.59;1659612;86;22392;-53
2021/10/03 10:31:13;;;;;;;5.05;2.20;;;;;;;18.39;37.40;102080.37;1659745;86;20991;-53
2021/10/03 10:33:56;;;;;;;2.27;2.00;;;;;;;18.65;36.15;102083.63;1638360;86;20953;-53
2021/10/03 10:36:29;;;;;;;4.53;2.12;;;;;;;18.95;36.45;102074.98;1691880;84;21618;-53
2021/10/03 10:39:14;;;;;;;9.70;2.55;;;;;;;19.26;34.62;102076.74;1691899;83;21057;-53
2021/10/03 10:41:48;;;;;;;9.70;2.15;;;;;;;19.31;33.43;102074.84;1691993;84;21010;-53
2021/10/03 10:44:36;;;;;;;5.92;2.00;;;;;;;19.18;34.12;102074.34;1691908;84;20911;-52
2021/10/03 10:47:18;;;;;;;8.63;1.98;;;;;;;18.96;33.23;102070.14;1691934;84;20983;-53
2021/10/03 10:49:51;;;;;;;4.33;1.90;;;;;;;18.61;33.71;102074.14;1661359;86;20978;-53
2021/10/03 10:52:24;;;;;;;3.00;2.12;;;;;;;18.40;35.65;102070.77;1691132;84;20998;-53
2021/10/03 10:55:11;;;;;;;11.53;2.22;;;;;;;18.58;33.67;102067.66;1692029;84;21161;-53
2021/10/03 10:57:57;;;;;;;3.42;1.90;;;;;;;18.44;33.73;102069.34;1692014;84;20943;-53
2021/10/03 11:00:27;;;;;;;13.22;2.00;;;;;;;18.14;33.79;102061.80;1691958;84;20935;-52
2021/10/03 11:03:04;;;;;;;4.03;2.30;;;;;;;18.01;34.56;102056.84;1691968;84;22211;-53
2021/10/03 11:05:47;;;;;;;10.08;2.37;;;;;;;17.92;35.64;102062.28;1692167;84;20951;-53
2021/10/03 11:08:17;;;;;;;4.10;2.05;;;;;;;18.05;36.39;102065.03;1658657;86;20915;-53
2021/10/03 11:11:09;;;;;;;9.63;2.25;;;;;;;18.34;35.47;102058.66;1674355;85;21003;-52
2021/10/03 11:13:51;;;;;;;3.62;1.75;;;;;;;18.38;36.22;102064.23;1674126;85;21027;-53
2021/10/03 11:16:38;;;;;;;1.67;1.57;;;;;;;18.42;35.75;102060.63;1674278;85;21071;-53
2021/10/03 11:19:21;;;;;;;2.62;1.80;;;;;;;18.59;35.22;102054.96;1674295;85;21035;-53
2021/10/03 11:21:51;;;;;;;12.30;2.22;;;;;;;18.80;35.40;102056.56;1674236;85;21817;-53
2021/10/03 11:24:33;;;;;;;6.20;1.70;;;;;;;18.91;34.25;102053.20;1674243;85;20968;-54
2021/10/03 11:27:12;;;;;;;10.55;1.95;;;;;;;18.88;35.28;102053.30;1674321;85;21544;-53